EKSS weather

Samsø Airport
Samsø, Central Jutland, Denmark

Public forecast

Using degrees Celsius for public forecast. Weather courtesy of forecast.io.

METAR (pilot weather report)

Closest report is Aarhus Airport, 24.6 nm (45.6 km) N. Retrieved 2019/05/20 18:20 UTC (21 minutes ago):

EKAH 201820Z AUTO 12001KT 9999NDV BKN017/// 17/15 Q1008

TAF (pilot weather forecast)

Closest forecast is Aarhus Airport, 24.6 nm (45.6 km) N. Retrieved 2019/05/20 18:18 UTC (23 minutes ago):

TAF TAF EKAH 201710Z 2018/2118 01008KT 9999 SCT020 BECMG 2018/2020 BKN008 BECMG 2020/2022 3000 BR BKN002 TEMPO 2022/2105 0500 FG BKN005 BECMG 2105/2107 8000 NSW SCT015 TEMPO 2107/2118 4000 SHRA BKN008 SCT020CB